Seymour, Tennessee
Current Conditions -  °F | °C
As of 12:53 PM on Sunday 21 Dec 2014 (Local Time) from KTYS Reporting Station
Broken Clouds Broken Clouds  
Wind Chill: 48°   Ceiling: 3900
Heat Index: 48°   Visibility: 10mi
Dew Point: 36°   Wind: 3mph
Humidity: 63%   Direction: 300°WNW
Pressure: 30.17"   Gusts: NA
Location:  35.88°N, 83.79°W
Report Text: KTYS 211753Z 30003KT 10SM BKN039 09/02 A3017 RMK AO2 SLP216 T00890022 10094 20033 58027
Loading
Personal Weather Stations






























Interactive Weather Map New forecast layout! Learn more

10-Day Weather Forecast

Advertisements
Track Severe Weather on mobile